sensor_id;sensor_type;location;lat;lon;timestamp;P1;durP1;ratioP1;P2;durP2;ratioP2
66421;SDS011;53228;51.380;0.098;2023-09-18T00:01:08;56.38;;;23.35;;
66421;SDS011;53228;51.380;0.098;2023-09-18T00:03:37;55.10;;;24.65;;
66421;SDS011;53228;51.380;0.098;2023-09-18T00:06:04;59.88;;;24.50;;
66421;SDS011;53228;51.380;0.098;2023-09-18T00:08:32;61.92;;;24.38;;
66421;SDS011;53228;51.380;0.098;2023-09-18T00:11:00;58.20;;;24.58;;
66421;SDS011;53228;51.380;0.098;2023-09-18T00:13:28;59.88;;;25.20;;
66421;SDS011;53228;51.380;0.098;2023-09-18T00:15:55;60.28;;;25.00;;
66421;SDS011;53228;51.380;0.098;2023-09-18T00:18:26;58.83;;;25.38;;
66421;SDS011;53228;51.380;0.098;2023-09-18T00:20:54;59.10;;;25.10;;
66421;SDS011;53228;51.380;0.098;2023-09-18T00:23:22;57.92;;;23.73;;
66421;SDS011;53228;51.380;0.098;2023-09-18T00:25:50;62.65;;;25.33;;
66421;SDS011;53228;51.380;0.098;2023-09-18T00:28:18;58.50;;;22.48;;
66421;SDS011;53228;51.380;0.098;2023-09-18T00:30:47;58.28;;;24.50;;
66421;SDS011;53228;51.380;0.098;2023-09-18T00:33:17;62.22;;;25.58;;
66421;SDS011;53228;51.380;0.098;2023-09-18T00:38:18;59.78;;;23.45;;
66421;SDS011;53228;51.380;0.098;2023-09-18T00:40:47;59.40;;;24.38;;
66421;SDS011;53228;51.380;0.098;2023-09-18T00:43:15;54.97;;;23.88;;
66421;SDS011;53228;51.380;0.098;2023-09-18T00:45:44;63.47;;;25.08;;
66421;SDS011;53228;51.380;0.098;2023-09-18T00:48:14;59.78;;;25.27;;
66421;SDS011;53228;51.380;0.098;2023-09-18T00:50:43;57.22;;;23.80;;
66421;SDS011;53228;51.380;0.098;2023-09-18T00:53:16;59.75;;;23.77;;
66421;SDS011;53228;51.380;0.098;2023-09-18T00:55:46;61.95;;;24.02;;
66421;SDS011;53228;51.380;0.098;2023-09-18T00:58:15;67.07;;;24.77;;
66421;SDS011;53228;51.380;0.098;2023-09-18T01:00:44;63.38;;;24.60;;
66421;SDS011;53228;51.380;0.098;2023-09-18T01:03:12;59.15;;;25.10;;
66421;SDS011;53228;51.380;0.098;2023-09-18T01:05:40;61.33;;;24.83;;
66421;SDS011;53228;51.380;0.098;2023-09-18T01:08:07;61.72;;;24.35;;
66421;SDS011;53228;51.380;0.098;2023-09-18T01:10:56;58.58;;;24.42;;
66421;SDS011;53228;51.380;0.098;2023-09-18T01:13:35;60.33;;;23.45;;
66421;SDS011;53228;51.380;0.098;2023-09-18T01:16:10;65.15;;;25.23;;
66421;SDS011;53228;51.380;0.098;2023-09-18T01:18:50;62.67;;;24.60;;
66421;SDS011;53228;51.380;0.098;2023-09-18T01:21:19;59.85;;;24.52;;
66421;SDS011;53228;51.380;0.098;2023-09-18T01:23:48;59.65;;;21.98;;
66421;SDS011;53228;51.380;0.098;2023-09-18T01:26:16;55.47;;;24.25;;
66421;SDS011;53228;51.380;0.098;2023-09-18T01:28:44;59.92;;;24.20;;
66421;SDS011;53228;51.380;0.098;2023-09-18T01:31:12;56.15;;;22.50;;
66421;SDS011;53228;51.380;0.098;2023-09-18T01:33:39;58.15;;;22.65;;
66421;SDS011;53228;51.380;0.098;2023-09-18T01:36:08;58.10;;;22.75;;
66421;SDS011;53228;51.380;0.098;2023-09-18T01:38:36;57.20;;;22.88;;
66421;SDS011;53228;51.380;0.098;2023-09-18T01:41:04;59.80;;;23.80;;
66421;SDS011;53228;51.380;0.098;2023-09-18T01:43:32;64.30;;;22.83;;
66421;SDS011;53228;51.380;0.098;2023-09-18T01:46:00;63.65;;;25.25;;
66421;SDS011;53228;51.380;0.098;2023-09-18T01:48:28;61.28;;;23.92;;
66421;SDS011;53228;51.380;0.098;2023-09-18T01:50:56;56.00;;;23.80;;
66421;SDS011;53228;51.380;0.098;2023-09-18T01:53:23;55.00;;;21.88;;
66421;SDS011;53228;51.380;0.098;2023-09-18T01:55:52;51.45;;;23.13;;
66421;SDS011;53228;51.380;0.098;2023-09-18T01:58:20;56.90;;;23.00;;
66421;SDS011;53228;51.380;0.098;2023-09-18T02:00:48;51.10;;;21.55;;
66421;SDS011;53228;51.380;0.098;2023-09-18T02:03:16;50.85;;;20.58;;
66421;SDS011;53228;51.380;0.098;2023-09-18T02:06:04;54.20;;;22.50;;
66421;SDS011;53228;51.380;0.098;2023-09-18T02:08:32;53.10;;;21.88;;
66421;SDS011;53228;51.380;0.098;2023-09-18T02:10:59;49.95;;;21.38;;
66421;SDS011;53228;51.380;0.098;2023-09-18T02:13:27;51.80;;;20.73;;
66421;SDS011;53228;51.380;0.098;2023-09-18T02:15:55;56.38;;;22.90;;
66421;SDS011;53228;51.380;0.098;2023-09-18T02:18:22;53.63;;;21.75;;
66421;SDS011;53228;51.380;0.098;2023-09-18T02:20:50;52.60;;;21.35;;
66421;SDS011;53228;51.380;0.098;2023-09-18T02:23:18;57.60;;;21.92;;
66421;SDS011;53228;51.380;0.098;2023-09-18T02:25:46;53.33;;;20.33;;
66421;SDS011;53228;51.380;0.098;2023-09-18T02:28:23;55.40;;;24.17;;
66421;SDS011;53228;51.380;0.098;2023-09-18T02:30:51;49.38;;;20.15;;
66421;SDS011;53228;51.380;0.098;2023-09-18T02:33:18;48.15;;;19.83;;
66421;SDS011;53228;51.380;0.098;2023-09-18T02:35:46;49.55;;;20.30;;
66421;SDS011;53228;51.380;0.098;2023-09-18T02:38:14;55.58;;;21.88;;
66421;SDS011;53228;51.380;0.098;2023-09-18T02:40:41;54.08;;;21.77;;
66421;SDS011;53228;51.380;0.098;2023-09-18T02:43:09;48.28;;;21.05;;
66421;SDS011;53228;51.380;0.098;2023-09-18T02:45:37;48.15;;;19.75;;
66421;SDS011;53228;51.380;0.098;2023-09-18T02:48:04;45.75;;;19.00;;
66421;SDS011;53228;51.380;0.098;2023-09-18T02:50:32;46.55;;;19.63;;
66421;SDS011;53228;51.380;0.098;2023-09-18T02:53:00;46.90;;;19.50;;
66421;SDS011;53228;51.380;0.098;2023-09-18T02:55:28;46.88;;;19.38;;
66421;SDS011;53228;51.380;0.098;2023-09-18T02:57:56;46.53;;;19.40;;
66421;SDS011;53228;51.380;0.098;2023-09-18T03:00:24;45.95;;;18.65;;
66421;SDS011;53228;51.380;0.098;2023-09-18T03:03:09;43.88;;;17.95;;
66421;SDS011;53228;51.380;0.098;2023-09-18T03:05:38;44.83;;;18.48;;
66421;SDS011;53228;51.380;0.098;2023-09-18T03:08:07;48.92;;;19.10;;
66421;SDS011;53228;51.380;0.098;2023-09-18T03:10:36;40.00;;;16.98;;
66421;SDS011;53228;51.380;0.098;2023-09-18T03:13:09;43.22;;;17.40;;
66421;SDS011;53228;51.380;0.098;2023-09-18T03:15:38;43.58;;;17.20;;
66421;SDS011;53228;51.380;0.098;2023-09-18T03:18:06;36.72;;;16.98;;
66421;SDS011;53228;51.380;0.098;2023-09-18T03:20:37;41.15;;;17.27;;
66421;SDS011;53228;51.380;0.098;2023-09-18T03:23:05;51.85;;;18.05;;
66421;SDS011;53228;51.380;0.098;2023-09-18T03:25:35;44.15;;;18.45;;
66421;SDS011;53228;51.380;0.098;2023-09-18T03:28:18;40.80;;;17.42;;
66421;SDS011;53228;51.380;0.098;2023-09-18T03:30:46;35.15;;;15.48;;
66421;SDS011;53228;51.380;0.098;2023-09-18T03:33:14;44.50;;;17.75;;
66421;SDS011;53228;51.380;0.098;2023-09-18T03:35:49;43.78;;;18.00;;
66421;SDS011;53228;51.380;0.098;2023-09-18T03:38:22;38.40;;;18.02;;
66421;SDS011;53228;51.380;0.098;2023-09-18T03:40:50;42.42;;;16.77;;
66421;SDS011;53228;51.380;0.098;2023-09-18T03:43:19;42.63;;;18.27;;
66421;SDS011;53228;51.380;0.098;2023-09-18T03:45:47;43.17;;;17.00;;
66421;SDS011;53228;51.380;0.098;2023-09-18T03:48:16;37.95;;;17.20;;
66421;SDS011;53228;51.380;0.098;2023-09-18T03:50:43;39.55;;;16.63;;
66421;SDS011;53228;51.380;0.098;2023-09-18T03:53:11;38.58;;;16.42;;
66421;SDS011;53228;51.380;0.098;2023-09-18T03:55:39;37.90;;;16.20;;
66421;SDS011;53228;51.380;0.098;2023-09-18T03:58:06;38.20;;;15.07;;
66421;SDS011;53228;51.380;0.098;2023-09-18T04:00:34;34.10;;;13.45;;
66421;SDS011;53228;51.380;0.098;2023-09-18T04:03:02;29.30;;;13.73;;
66421;SDS011;53228;51.380;0.098;2023-09-18T04:05:30;29.98;;;13.57;;
66421;SDS011;53228;51.380;0.098;2023-09-18T04:07:58;30.25;;;13.48;;
66421;SDS011;53228;51.380;0.098;2023-09-18T04:10:26;32.58;;;13.18;;
66421;SDS011;53228;51.380;0.098;2023-09-18T04:12:54;29.35;;;13.40;;
66421;SDS011;53228;51.380;0.098;2023-09-18T04:15:22;28.17;;;13.05;;
66421;SDS011;53228;51.380;0.098;2023-09-18T04:17:51;27.50;;;12.90;;
66421;SDS011;53228;51.380;0.098;2023-09-18T04:20:18;27.80;;;12.25;;
66421;SDS011;53228;51.380;0.098;2023-09-18T04:22:47;24.00;;;11.88;;
66421;SDS011;53228;51.380;0.098;2023-09-18T04:25:18;25.35;;;12.05;;
66421;SDS011;53228;51.380;0.098;2023-09-18T04:27:49;27.02;;;12.07;;
66421;SDS011;53228;51.380;0.098;2023-09-18T04:30:19;19.48;;;11.32;;
66421;SDS011;53228;51.380;0.098;2023-09-18T04:32:48;24.63;;;12.65;;
66421;SDS011;53228;51.380;0.098;2023-09-18T04:35:19;23.67;;;12.13;;
66421;SDS011;53228;51.380;0.098;2023-09-18T04:37:47;27.38;;;12.65;;
66421;SDS011;53228;51.380;0.098;2023-09-18T04:40:15;22.30;;;11.90;;
66421;SDS011;53228;51.380;0.098;2023-09-18T04:42:43;25.52;;;11.43;;
66421;SDS011;53228;51.380;0.098;2023-09-18T04:45:11;19.88;;;10.80;;
66421;SDS011;53228;51.380;0.098;2023-09-18T04:47:38;22.98;;;12.40;;
66421;SDS011;53228;51.380;0.098;2023-09-18T04:50:06;23.30;;;11.23;;
66421;SDS011;53228;51.380;0.098;2023-09-18T04:52:40;22.42;;;10.77;;
66421;SDS011;53228;51.380;0.098;2023-09-18T04:55:13;22.52;;;11.40;;
66421;SDS011;53228;51.380;0.098;2023-09-18T04:57:41;26.48;;;12.05;;
66421;SDS011;53228;51.380;0.098;2023-09-18T05:00:09;19.63;;;10.50;;
66421;SDS011;53228;51.380;0.098;2023-09-18T05:02:44;21.55;;;10.85;;
66421;SDS011;53228;51.380;0.098;2023-09-18T05:05:12;21.52;;;10.38;;
66421;SDS011;53228;51.380;0.098;2023-09-18T05:07:41;19.88;;;10.07;;
66421;SDS011;53228;51.380;0.098;2023-09-18T05:10:09;19.27;;;10.75;;
66421;SDS011;53228;51.380;0.098;2023-09-18T05:12:38;19.27;;;10.60;;
66421;SDS011;53228;51.380;0.098;2023-09-18T05:15:06;18.83;;;9.75;;
66421;SDS011;53228;51.380;0.098;2023-09-18T05:17:40;19.38;;;9.18;;
66421;SDS011;53228;51.380;0.098;2023-09-18T05:20:10;18.17;;;8.90;;
66421;SDS011;53228;51.380;0.098;2023-09-18T05:22:43;18.40;;;9.25;;
66421;SDS011;53228;51.380;0.098;2023-09-18T05:25:12;16.35;;;8.43;;
66421;SDS011;53228;51.380;0.098;2023-09-18T05:27:42;18.75;;;9.15;;
66421;SDS011;53228;51.380;0.098;2023-09-18T05:30:17;14.82;;;8.60;;
66421;SDS011;53228;51.380;0.098;2023-09-18T05:32:48;18.10;;;8.57;;
66421;SDS011;53228;51.380;0.098;2023-09-18T05:35:16;15.80;;;8.93;;
66421;SDS011;53228;51.380;0.098;2023-09-18T05:37:44;17.60;;;7.90;;
66421;SDS011;53228;51.380;0.098;2023-09-18T05:40:13;18.83;;;10.30;;
66421;SDS011;53228;51.380;0.098;2023-09-18T05:42:41;11.80;;;7.28;;
66421;SDS011;53228;51.380;0.098;2023-09-18T05:45:11;14.70;;;8.10;;
66421;SDS011;53228;51.380;0.098;2023-09-18T05:47:42;15.32;;;7.65;;
66421;SDS011;53228;51.380;0.098;2023-09-18T05:50:11;14.82;;;8.20;;
66421;SDS011;53228;51.380;0.098;2023-09-18T05:52:43;12.13;;;7.05;;
66421;SDS011;53228;51.380;0.098;2023-09-18T05:55:13;8.95;;;6.15;;
66421;SDS011;53228;51.380;0.098;2023-09-18T05:57:41;13.88;;;5.47;;
66421;SDS011;53228;51.380;0.098;2023-09-18T06:00:09;11.20;;;5.95;;
66421;SDS011;53228;51.380;0.098;2023-09-18T06:02:41;12.45;;;5.45;;
66421;SDS011;53228;51.380;0.098;2023-09-18T06:05:10;13.45;;;5.75;;
66421;SDS011;53228;51.380;0.098;2023-09-18T06:07:39;8.02;;;5.82;;
66421;SDS011;53228;51.380;0.098;2023-09-18T06:10:06;8.15;;;5.15;;
66421;SDS011;53228;51.380;0.098;2023-09-18T06:12:37;10.57;;;5.45;;
66421;SDS011;53228;51.380;0.098;2023-09-18T06:15:08;11.20;;;5.57;;
66421;SDS011;53228;51.380;0.098;2023-09-18T06:17:37;10.50;;;4.90;;
66421;SDS011;53228;51.380;0.098;2023-09-18T06:20:07;9.77;;;5.43;;
66421;SDS011;53228;51.380;0.098;2023-09-18T06:22:40;13.10;;;5.70;;
66421;SDS011;53228;51.380;0.098;2023-09-18T06:25:08;10.40;;;5.90;;
66421;SDS011;53228;51.380;0.098;2023-09-18T06:27:40;13.18;;;5.60;;
66421;SDS011;53228;51.380;0.098;2023-09-18T06:30:10;9.20;;;4.80;;
66421;SDS011;53228;51.380;0.098;2023-09-18T06:32:38;9.95;;;4.57;;
66421;SDS011;53228;51.380;0.098;2023-09-18T06:35:06;7.13;;;5.03;;
66421;SDS011;53228;51.380;0.098;2023-09-18T06:37:34;11.40;;;5.85;;
66421;SDS011;53228;51.380;0.098;2023-09-18T06:40:01;10.63;;;5.10;;
66421;SDS011;53228;51.380;0.098;2023-09-18T06:42:31;9.55;;;4.75;;
66421;SDS011;53228;51.380;0.098;2023-09-18T06:45:00;13.45;;;5.30;;
66421;SDS011;53228;51.380;0.098;2023-09-18T06:47:30;8.32;;;4.82;;
66421;SDS011;53228;51.380;0.098;2023-09-18T06:49:58;9.02;;;5.32;;
66421;SDS011;53228;51.380;0.098;2023-09-18T06:52:27;9.82;;;5.20;;
66421;SDS011;53228;51.380;0.098;2023-09-18T06:54:56;9.05;;;5.20;;
66421;SDS011;53228;51.380;0.098;2023-09-18T06:57:25;6.88;;;3.75;;
66421;SDS011;53228;51.380;0.098;2023-09-18T06:59:52;9.55;;;5.30;;
66421;SDS011;53228;51.380;0.098;2023-09-18T07:02:21;10.20;;;4.60;;
66421;SDS011;53228;51.380;0.098;2023-09-18T07:04:49;8.57;;;5.15;;
66421;SDS011;53228;51.380;0.098;2023-09-18T07:07:17;7.45;;;4.38;;
66421;SDS011;53228;51.380;0.098;2023-09-18T07:09:51;5.60;;;4.43;;
66421;SDS011;53228;51.380;0.098;2023-09-18T07:12:31;9.55;;;5.00;;
66421;SDS011;53228;51.380;0.098;2023-09-18T07:15:00;8.25;;;5.18;;
66421;SDS011;53228;51.380;0.098;2023-09-18T07:17:32;7.25;;;4.97;;
66421;SDS011;53228;51.380;0.098;2023-09-18T07:20:01;7.63;;;5.10;;
66421;SDS011;53228;51.380;0.098;2023-09-18T07:22:36;9.63;;;4.60;;
66421;SDS011;53228;51.380;0.098;2023-09-18T07:25:05;8.77;;;5.47;;
66421;SDS011;53228;51.380;0.098;2023-09-18T07:27:33;10.60;;;4.85;;
66421;SDS011;53228;51.380;0.098;2023-09-18T07:30:04;5.65;;;3.42;;
66421;SDS011;53228;51.380;0.098;2023-09-18T07:32:32;6.32;;;3.47;;
66421;SDS011;53228;51.380;0.098;2023-09-18T07:35:05;6.80;;;3.90;;
66421;SDS011;53228;51.380;0.098;2023-09-18T07:40:05;10.45;;;3.30;;
66421;SDS011;53228;51.380;0.098;2023-09-18T07:42:34;6.22;;;3.20;;
66421;SDS011;53228;51.380;0.098;2023-09-18T07:45:01;4.57;;;2.90;;
66421;SDS011;53228;51.380;0.098;2023-09-18T07:47:29;7.35;;;2.90;;
66421;SDS011;53228;51.380;0.098;2023-09-18T07:49:59;7.63;;;2.75;;
66421;SDS011;53228;51.380;0.098;2023-09-18T07:52:28;6.07;;;2.85;;
66421;SDS011;53228;51.380;0.098;2023-09-18T07:54:56;5.32;;;2.78;;
66421;SDS011;53228;51.380;0.098;2023-09-18T07:57:27;4.05;;;2.28;;
66421;SDS011;53228;51.380;0.098;2023-09-18T07:59:57;5.70;;;2.50;;
66421;SDS011;53228;51.380;0.098;2023-09-18T08:02:25;5.07;;;2.28;;
66421;SDS011;53228;51.380;0.098;2023-09-18T08:04:56;4.35;;;1.92;;
66421;SDS011;53228;51.380;0.098;2023-09-18T08:07:23;5.60;;;1.83;;
66421;SDS011;53228;51.380;0.098;2023-09-18T08:09:52;5.05;;;2.13;;
66421;SDS011;53228;51.380;0.098;2023-09-18T08:12:19;2.83;;;1.40;;
66421;SDS011;53228;51.380;0.098;2023-09-18T08:14:47;4.30;;;1.75;;
66421;SDS011;53228;51.380;0.098;2023-09-18T08:17:17;5.07;;;1.73;;
66421;SDS011;53228;51.380;0.098;2023-09-18T08:19:45;2.97;;;1.70;;
66421;SDS011;53228;51.380;0.098;2023-09-18T08:22:12;5.28;;;1.77;;
66421;SDS011;53228;51.380;0.098;2023-09-18T08:24:42;4.97;;;1.55;;
66421;SDS011;53228;51.380;0.098;2023-09-18T08:27:13;3.40;;;1.58;;
66421;SDS011;53228;51.380;0.098;2023-09-18T08:29:46;1.92;;;1.38;;
66421;SDS011;53228;51.380;0.098;2023-09-18T08:32:14;5.32;;;1.70;;
66421;SDS011;53228;51.380;0.098;2023-09-18T08:34:42;6.57;;;2.60;;
66421;SDS011;53228;51.380;0.098;2023-09-18T08:37:10;7.80;;;2.53;;
66421;SDS011;53228;51.380;0.098;2023-09-18T08:39:38;5.20;;;1.92;;
66421;SDS011;53228;51.380;0.098;2023-09-18T08:42:06;3.15;;;1.63;;
66421;SDS011;53228;51.380;0.098;2023-09-18T08:44:36;3.55;;;1.45;;
66421;SDS011;53228;51.380;0.098;2023-09-18T08:47:06;9.80;;;2.40;;
66421;SDS011;53228;51.380;0.098;2023-09-18T08:49:37;4.78;;;1.60;;
66421;SDS011;53228;51.380;0.098;2023-09-18T08:52:06;3.67;;;1.35;;
66421;SDS011;53228;51.380;0.098;2023-09-18T08:54:35;4.75;;;1.75;;
66421;SDS011;53228;51.380;0.098;2023-09-18T08:57:03;6.13;;;1.52;;
66421;SDS011;53228;51.380;0.098;2023-09-18T08:59:35;3.45;;;1.67;;
66421;SDS011;53228;51.380;0.098;2023-09-18T09:02:05;3.13;;;1.60;;
66421;SDS011;53228;51.380;0.098;2023-09-18T09:04:34;5.13;;;1.40;;
66421;SDS011;53228;51.380;0.098;2023-09-18T09:07:02;4.25;;;1.55;;
66421;SDS011;53228;51.380;0.098;2023-09-18T09:09:30;3.05;;;1.17;;
66421;SDS011;53228;51.380;0.098;2023-09-18T09:11:58;4.88;;;1.58;;
66421;SDS011;53228;51.380;0.098;2023-09-18T09:14:25;3.53;;;1.17;;
66421;SDS011;53228;51.380;0.098;2023-09-18T09:16:56;5.47;;;1.40;;
66421;SDS011;53228;51.380;0.098;2023-09-18T09:19:30;5.40;;;1.40;;
66421;SDS011;53228;51.380;0.098;2023-09-18T09:21:59;4.15;;;1.50;;
66421;SDS011;53228;51.380;0.098;2023-09-18T09:24:38;6.30;;;1.20;;
66421;SDS011;53228;51.380;0.098;2023-09-18T09:27:10;4.13;;;1.50;;
66421;SDS011;53228;51.380;0.098;2023-09-18T09:29:39;6.07;;;1.40;;
66421;SDS011;53228;51.380;0.098;2023-09-18T09:32:14;6.82;;;1.50;;
66421;SDS011;53228;51.380;0.098;2023-09-18T09:34:44;4.85;;;1.20;;
66421;SDS011;53228;51.380;0.098;2023-09-18T09:37:13;5.55;;;1.40;;
66421;SDS011;53228;51.380;0.098;2023-09-18T09:39:50;4.30;;;1.98;;
66421;SDS011;53228;51.380;0.098;2023-09-18T09:42:19;4.43;;;1.40;;
66421;SDS011;53228;51.380;0.098;2023-09-18T09:45:00;1.85;;;1.40;;
66421;SDS011;53228;51.380;0.098;2023-09-18T09:47:32;3.78;;;1.40;;
66421;SDS011;53228;51.380;0.098;2023-09-18T09:52:41;2.92;;;1.27;;
66421;SDS011;53228;51.380;0.098;2023-09-18T09:55:51;7.95;;;1.80;;
66421;SDS011;53228;51.380;0.098;2023-09-18T09:58:09;3.55;;;1.33;;
66421;SDS011;53228;51.380;0.098;2023-09-18T10:03:10;7.22;;;2.05;;
66421;SDS011;53228;51.380;0.098;2023-09-18T10:05:43;4.90;;;1.90;;
66421;SDS011;53228;51.380;0.098;2023-09-18T10:08:14;5.57;;;1.73;;
66421;SDS011;53228;51.380;0.098;2023-09-18T10:10:50;5.15;;;1.58;;
66421;SDS011;53228;51.380;0.098;2023-09-18T10:13:32;2.75;;;1.70;;
66421;SDS011;53228;51.380;0.098;2023-09-18T10:16:06;3.30;;;1.80;;
66421;SDS011;53228;51.380;0.098;2023-09-18T10:19:00;6.30;;;2.55;;
66421;SDS011;53228;51.380;0.098;2023-09-18T10:27:04;4.28;;;2.30;;
66421;SDS011;53228;51.380;0.098;2023-09-18T10:29:33;5.85;;;2.05;;
66421;SDS011;53228;51.380;0.098;2023-09-18T10:32:03;5.10;;;2.20;;
66421;SDS011;53228;51.380;0.098;2023-09-18T10:34:31;2.75;;;1.52;;
66421;SDS011;53228;51.380;0.098;2023-09-18T10:37:02;1.90;;;1.02;;
66421;SDS011;53228;51.380;0.098;2023-09-18T10:39:35;3.10;;;1.10;;
66421;SDS011;53228;51.380;0.098;2023-09-18T10:42:04;3.00;;;1.50;;
66421;SDS011;53228;51.380;0.098;2023-09-18T10:44:35;4.07;;;1.75;;
66421;SDS011;53228;51.380;0.098;2023-09-18T10:47:08;3.90;;;1.25;;
66421;SDS011;53228;51.380;0.098;2023-09-18T10:49:38;5.28;;;1.90;;
66421;SDS011;53228;51.380;0.098;2023-09-18T10:52:06;4.78;;;2.10;;
66421;SDS011;53228;51.380;0.098;2023-09-18T10:54:39;7.18;;;2.38;;
66421;SDS011;53228;51.380;0.098;2023-09-18T10:57:07;2.60;;;1.75;;
66421;SDS011;53228;51.380;0.098;2023-09-18T10:59:42;3.75;;;2.33;;
66421;SDS011;53228;51.380;0.098;2023-09-18T11:02:14;3.95;;;1.75;;
66421;SDS011;53228;51.380;0.098;2023-09-18T11:04:44;6.53;;;1.92;;
66421;SDS011;53228;51.380;0.098;2023-09-18T11:07:30;7.88;;;2.40;;
66421;SDS011;53228;51.380;0.098;2023-09-18T11:09:58;6.93;;;1.80;;
66421;SDS011;53228;51.380;0.098;2023-09-18T11:12:44;7.03;;;2.67;;
66421;SDS011;53228;51.380;0.098;2023-09-18T11:15:25;9.65;;;2.90;;
66421;SDS011;53228;51.380;0.098;2023-09-18T11:17:58;6.15;;;1.92;;
66421;SDS011;53228;51.380;0.098;2023-09-18T11:20:28;7.30;;;2.33;;
66421;SDS011;53228;51.380;0.098;2023-09-18T11:23:09;4.40;;;1.67;;
66421;SDS011;53228;51.380;0.098;2023-09-18T11:25:43;11.38;;;2.83;;
66421;SDS011;53228;51.380;0.098;2023-09-18T11:28:13;6.82;;;2.35;;
66421;SDS011;53228;51.380;0.098;2023-09-18T11:30:53;7.10;;;2.53;;
66421;SDS011;53228;51.380;0.098;2023-09-18T11:33:32;8.65;;;3.38;;
66421;SDS011;53228;51.380;0.098;2023-09-18T11:39:00;6.32;;;2.50;;
66421;SDS011;53228;51.380;0.098;2023-09-18T11:41:34;5.53;;;2.22;;
66421;SDS011;53228;51.380;0.098;2023-09-18T11:46:49;5.35;;;2.33;;
66421;SDS011;53228;51.380;0.098;2023-09-18T11:49:19;5.65;;;2.75;;
66421;SDS011;53228;51.380;0.098;2023-09-18T11:51:54;6.20;;;2.28;;
66421;SDS011;53228;51.380;0.098;2023-09-18T11:54:25;5.68;;;1.58;;
66421;SDS011;53228;51.380;0.098;2023-09-18T11:56:54;5.07;;;1.83;;
66421;SDS011;53228;51.380;0.098;2023-09-18T11:59:38;3.63;;;1.83;;
66421;SDS011;53228;51.380;0.098;2023-09-18T12:02:12;6.30;;;1.90;;
66421;SDS011;53228;51.380;0.098;2023-09-18T12:04:48;2.03;;;1.30;;
66421;SDS011;53228;51.380;0.098;2023-09-18T12:07:16;2.75;;;1.88;;
66421;SDS011;53228;51.380;0.098;2023-09-18T12:09:46;2.97;;;1.65;;
66421;SDS011;53228;51.380;0.098;2023-09-18T12:12:14;4.32;;;1.42;;
66421;SDS011;53228;51.380;0.098;2023-09-18T12:14:44;4.25;;;1.33;;
66421;SDS011;53228;51.380;0.098;2023-09-18T12:17:15;2.30;;;1.08;;
66421;SDS011;53228;51.380;0.098;2023-09-18T12:19:50;2.67;;;1.50;;
66421;SDS011;53228;51.380;0.098;2023-09-18T12:22:28;3.05;;;1.30;;
66421;SDS011;53228;51.380;0.098;2023-09-18T12:25:08;2.30;;;1.52;;
66421;SDS011;53228;51.380;0.098;2023-09-18T12:27:43;2.55;;;1.27;;
66421;SDS011;53228;51.380;0.098;2023-09-18T12:30:11;0.80;;;0.80;;
66421;SDS011;53228;51.380;0.098;2023-09-18T12:32:42;2.47;;;0.40;;
66421;SDS011;53228;51.380;0.098;2023-09-18T12:35:13;1.65;;;0.45;;
66421;SDS011;53228;51.380;0.098;2023-09-18T12:37:41;2.10;;;0.68;;
66421;SDS011;53228;51.380;0.098;2023-09-18T12:40:22;1.88;;;0.95;;
66421;SDS011;53228;51.380;0.098;2023-09-18T12:42:50;1.65;;;0.75;;
66421;SDS011;53228;51.380;0.098;2023-09-18T12:45:18;1.27;;;0.60;;
66421;SDS011;53228;51.380;0.098;2023-09-18T12:47:46;5.32;;;0.82;;
66421;SDS011;53228;51.380;0.098;2023-09-18T12:50:14;2.03;;;0.52;;
66421;SDS011;53228;51.380;0.098;2023-09-18T12:52:42;1.80;;;0.60;;
66421;SDS011;53228;51.380;0.098;2023-09-18T12:55:25;5.47;;;1.10;;
66421;SDS011;53228;51.380;0.098;2023-09-18T12:57:54;1.33;;;0.70;;
66421;SDS011;53228;51.380;0.098;2023-09-18T13:00:23;2.85;;;1.00;;
66421;SDS011;53228;51.380;0.098;2023-09-18T13:02:54;4.75;;;0.80;;
66421;SDS011;53228;51.380;0.098;2023-09-18T13:05:24;4.43;;;1.08;;
66421;SDS011;53228;51.380;0.098;2023-09-18T13:07:53;7.00;;;0.93;;
66421;SDS011;53228;51.380;0.098;2023-09-18T13:10:22;5.63;;;1.00;;
66421;SDS011;53228;51.380;0.098;2023-09-18T13:12:54;5.15;;;0.82;;
66421;SDS011;53228;51.380;0.098;2023-09-18T13:15:29;3.85;;;1.30;;
66421;SDS011;53228;51.380;0.098;2023-09-18T13:17:59;4.18;;;1.30;;
66421;SDS011;53228;51.380;0.098;2023-09-18T13:20:28;4.25;;;1.30;;
66421;SDS011;53228;51.380;0.098;2023-09-18T13:22:57;6.18;;;2.38;;
66421;SDS011;53228;51.380;0.098;2023-09-18T13:25:29;5.85;;;1.08;;
66421;SDS011;53228;51.380;0.098;2023-09-18T13:28:05;4.50;;;0.93;;
66421;SDS011;53228;51.380;0.098;2023-09-18T13:30:35;7.38;;;1.17;;
66421;SDS011;53228;51.380;0.098;2023-09-18T13:33:08;9.82;;;1.70;;
66421;SDS011;53228;51.380;0.098;2023-09-18T13:35:38;9.73;;;1.77;;
66421;SDS011;53228;51.380;0.098;2023-09-18T13:38:07;14.15;;;4.85;;
66421;SDS011;53228;51.380;0.098;2023-09-18T13:40:36;11.07;;;2.45;;
66421;SDS011;53228;51.380;0.098;2023-09-18T13:43:05;5.43;;;1.38;;
66421;SDS011;53228;51.380;0.098;2023-09-18T13:45:34;6.18;;;1.23;;
66421;SDS011;53228;51.380;0.098;2023-09-18T13:48:02;6.18;;;1.40;;
66421;SDS011;53228;51.380;0.098;2023-09-18T13:50:32;4.75;;;1.25;;
66421;SDS011;53228;51.380;0.098;2023-09-18T13:53:00;2.85;;;1.05;;
66421;SDS011;53228;51.380;0.098;2023-09-18T13:55:30;4.90;;;1.10;;
66421;SDS011;53228;51.380;0.098;2023-09-18T13:57:58;5.97;;;1.75;;
66421;SDS011;53228;51.380;0.098;2023-09-18T14:00:26;2.88;;;0.95;;
66421;SDS011;53228;51.380;0.098;2023-09-18T14:02:54;11.45;;;2.80;;
66421;SDS011;53228;51.380;0.098;2023-09-18T14:05:22;6.50;;;1.13;;
66421;SDS011;53228;51.380;0.098;2023-09-18T14:07:49;18.27;;;5.65;;
66421;SDS011;53228;51.380;0.098;2023-09-18T14:10:17;11.45;;;2.53;;
66421;SDS011;53228;51.380;0.098;2023-09-18T14:12:48;4.45;;;1.58;;
66421;SDS011;53228;51.380;0.098;2023-09-18T14:15:36;9.13;;;1.55;;
66421;SDS011;53228;51.380;0.098;2023-09-18T14:18:24;2.67;;;1.10;;
66421;SDS011;53228;51.380;0.098;2023-09-18T14:20:52;6.63;;;1.10;;
66421;SDS011;53228;51.380;0.098;2023-09-18T14:23:20;4.20;;;1.00;;
66421;SDS011;53228;51.380;0.098;2023-09-18T14:25:48;7.10;;;1.70;;
66421;SDS011;53228;51.380;0.098;2023-09-18T14:28:17;3.92;;;1.10;;
66421;SDS011;53228;51.380;0.098;2023-09-18T14:30:45;3.55;;;1.40;;
66421;SDS011;53228;51.380;0.098;2023-09-18T14:33:12;3.42;;;1.15;;
66421;SDS011;53228;51.380;0.098;2023-09-18T14:35:42;7.53;;;1.77;;
66421;SDS011;53228;51.380;0.098;2023-09-18T14:38:09;8.57;;;1.90;;
66421;SDS011;53228;51.380;0.098;2023-09-18T14:40:40;7.13;;;1.73;;
66421;SDS011;53228;51.380;0.098;2023-09-18T14:43:08;3.38;;;1.17;;
66421;SDS011;53228;51.380;0.098;2023-09-18T14:45:36;6.22;;;1.30;;
66421;SDS011;53228;51.380;0.098;2023-09-18T14:48:05;7.43;;;2.42;;
66421;SDS011;53228;51.380;0.098;2023-09-18T14:50:33;6.85;;;1.45;;
66421;SDS011;53228;51.380;0.098;2023-09-18T14:53:01;4.05;;;1.08;;
66421;SDS011;53228;51.380;0.098;2023-09-18T14:55:32;5.13;;;1.20;;
66421;SDS011;53228;51.380;0.098;2023-09-18T14:58:00;4.32;;;0.77;;
66421;SDS011;53228;51.380;0.098;2023-09-18T15:00:28;6.95;;;1.75;;
66421;SDS011;53228;51.380;0.098;2023-09-18T15:02:56;5.22;;;1.02;;
66421;SDS011;53228;51.380;0.098;2023-09-18T15:05:27;13.75;;;1.17;;
66421;SDS011;53228;51.380;0.098;2023-09-18T15:07:55;5.05;;;1.52;;
66421;SDS011;53228;51.380;0.098;2023-09-18T15:10:22;4.93;;;1.15;;
66421;SDS011;53228;51.380;0.098;2023-09-18T15:12:50;4.05;;;1.00;;
66421;SDS011;53228;51.380;0.098;2023-09-18T15:15:18;6.25;;;1.58;;